Ayia Paraskevi, Greece
Current Conditions -  °F | °C
As of 9:50 PM on Thursday 23 Oct 2014 (Local Time) from LGMT Reporting Station
Broken Clouds Broken Clouds  
Wind Chill: 68°   Ceiling: 18000
Heat Index: 68°   Visibility: 6mi
Dew Point: 55°   Wind: 7mph
Humidity: 64%   Direction: 240°WSW
Pressure: 29.77"   Gusts: NA
Location:  39.25°N, 26.27°E
Report Text: LGMT 231950Z 24006KT 9999 FEW018TCU SCT025 BKN180 20/13 Q1008
Loading
Personal Weather Stations






























Interactive Weather Map
Tropical Storm Tracking
New forecast layout! Learn more

10-Day Weather Forecast

Advertisements
Track Severe Weather on mobile